createdAt,value
2017-07-29T00:00:13.870Z,18.10
2017-07-29T00:02:41.410Z,18.20
2017-07-29T00:05:08.975Z,18.30
2017-07-29T00:07:36.525Z,18.30
2017-07-29T00:10:04.098Z,18.20
2017-07-29T00:12:31.646Z,18.20
2017-07-29T00:14:59.256Z,18.30
2017-07-29T00:17:27.608Z,18.20
2017-07-29T00:19:56.426Z,18.20
2017-07-29T00:22:24.742Z,18.30
2017-07-29T00:24:52.280Z,18.30
2017-07-29T00:27:19.856Z,18.20
2017-07-29T00:29:47.419Z,18.30
2017-07-29T00:32:14.989Z,18.30
2017-07-29T00:34:42.564Z,18.20
2017-07-29T00:37:10.107Z,18.30
2017-07-29T00:39:38.445Z,18.30
2017-07-29T00:42:05.984Z,18.30
2017-07-29T00:44:34.300Z,18.30
2017-07-29T00:47:01.876Z,18.30
2017-07-29T00:49:29.420Z,18.30
2017-07-29T00:51:57.007Z,18.40
2017-07-29T00:54:24.550Z,18.30
2017-07-29T00:56:52.095Z,18.20
2017-07-29T00:59:19.667Z,18.20
2017-07-29T01:01:47.200Z,18.20
2017-07-29T01:04:14.810Z,18.20
2017-07-29T01:06:42.347Z,18.20
2017-07-29T01:09:10.600Z,18.30
2017-07-29T01:11:38.182Z,18.40
2017-07-29T01:14:05.732Z,18.30
2017-07-29T01:16:33.267Z,18.30
2017-07-29T01:19:00.863Z,18.30
2017-07-29T01:21:28.401Z,18.30
2017-07-29T01:23:55.945Z,18.30
2017-07-29T01:26:23.513Z,18.20
2017-07-29T01:28:51.051Z,18.20
2017-07-29T01:31:18.637Z,18.30
2017-07-29T01:33:46.191Z,18.30
2017-07-29T01:36:13.945Z,18.30
2017-07-29T01:38:41.522Z,18.30
2017-07-29T01:41:09.080Z,18.30
2017-07-29T01:43:36.670Z,18.20
2017-07-29T01:46:04.217Z,18.20
2017-07-29T01:48:31.770Z,18.20
2017-07-29T01:50:59.354Z,18.20
2017-07-29T01:53:26.892Z,18.20
2017-07-29T01:55:54.473Z,18.20
2017-07-29T01:58:22.063Z,18.20
2017-07-29T02:00:49.662Z,18.20
2017-07-29T02:03:17.205Z,18.20
2017-07-29T02:05:44.741Z,18.20
2017-07-29T02:08:12.342Z,18.20
2017-07-29T02:10:39.932Z,18.30
2017-07-29T02:13:07.475Z,18.30
2017-07-29T02:15:35.065Z,18.40
2017-07-29T02:18:02.610Z,18.40
2017-07-29T02:20:30.153Z,18.40
2017-07-29T02:22:57.730Z,18.50
2017-07-29T02:25:25.301Z,18.50
2017-07-29T02:27:53.656Z,18.50
2017-07-29T02:30:21.207Z,18.50
2017-07-29T02:32:48.763Z,18.50
2017-07-29T02:35:16.334Z,18.50
2017-07-29T02:37:43.888Z,18.50
2017-07-29T02:40:11.465Z,18.60
2017-07-29T02:42:39.775Z,18.50
2017-07-29T02:45:07.374Z,18.50
2017-07-29T02:47:34.931Z,18.50
2017-07-29T02:50:02.476Z,18.50
2017-07-29T02:52:30.067Z,18.50
2017-07-29T02:54:57.622Z,18.50
2017-07-29T02:57:25.182Z,18.50
2017-07-29T02:59:52.754Z,18.50
2017-07-29T03:02:21.109Z,18.40
2017-07-29T03:04:48.656Z,18.40
2017-07-29T03:07:16.195Z,18.40
2017-07-29T03:09:44.093Z,18.50
2017-07-29T03:12:12.443Z,18.50
2017-07-29T03:14:40.016Z,18.50
2017-07-29T03:17:07.610Z,18.50
2017-07-29T03:19:35.933Z,18.40
2017-07-29T03:22:03.544Z,18.40
2017-07-29T03:24:32.646Z,18.40
2017-07-29T03:27:00.975Z,18.40
2017-07-29T03:29:28.546Z,18.30
2017-07-29T03:31:56.120Z,18.40
2017-07-29T03:34:23.657Z,18.40
2017-07-29T03:36:51.227Z,18.40
2017-07-29T03:39:18.815Z,18.40
2017-07-29T03:41:47.123Z,18.40
2017-07-29T03:44:14.703Z,18.30
2017-07-29T03:46:42.261Z,18.30
2017-07-29T03:49:09.851Z,18.20
2017-07-29T03:51:37.391Z,18.20
2017-07-29T03:54:04.957Z,18.30
2017-07-29T03:56:32.531Z,18.20
2017-07-29T03:59:00.080Z,18.30
2017-07-29T04:01:27.654Z,18.20
2017-07-29T04:03:56.016Z,18.30
2017-07-29T04:06:23.557Z,18.30
2017-07-29T04:08:51.106Z,18.30
2017-07-29T04:11:18.692Z,18.40
2017-07-29T04:13:46.237Z,18.40
2017-07-29T04:16:13.806Z,18.40
2017-07-29T04:18:41.395Z,18.30
2017-07-29T04:21:09.727Z,18.30
2017-07-29T04:23:37.278Z,18.30
2017-07-29T04:26:04.867Z,18.30
2017-07-29T04:28:32.422Z,18.30
2017-07-29T04:30:59.966Z,18.30
2017-07-29T04:33:27.769Z,18.30
2017-07-29T04:35:55.306Z,18.40
2017-07-29T04:38:22.899Z,18.30
2017-07-29T04:40:50.437Z,18.40
2017-07-29T04:43:18.754Z,18.40
2017-07-29T04:45:46.319Z,18.40
2017-07-29T04:48:13.924Z,18.40
2017-07-29T04:50:41.501Z,18.40
2017-07-29T04:53:09.813Z,18.50
2017-07-29T04:55:37.396Z,18.50
2017-07-29T04:58:04.973Z,18.60
2017-07-29T05:00:32.511Z,18.70
2017-07-29T05:03:00.075Z,18.70
2017-07-29T05:05:27.620Z,18.60
2017-07-29T05:07:55.195Z,18.60
2017-07-29T05:10:22.745Z,18.70
2017-07-29T05:12:50.355Z,18.70
2017-07-29T05:15:18.688Z,18.80
2017-07-29T05:17:46.231Z,18.80
2017-07-29T05:20:13.818Z,18.80
2017-07-29T05:22:41.363Z,19.00
2017-07-29T05:25:08.940Z,19.00
2017-07-29T05:27:36.479Z,19.10
2017-07-29T05:30:04.053Z,19.10
2017-07-29T05:32:32.413Z,19.00
2017-07-29T05:34:59.948Z,19.10
2017-07-29T05:37:27.518Z,19.00
2017-07-29T05:39:55.068Z,19.10
2017-07-29T05:42:22.638Z,19.00
2017-07-29T05:44:50.232Z,19.00
2017-07-29T05:47:17.782Z,19.00
2017-07-29T05:49:45.331Z,19.00
2017-07-29T05:52:12.916Z,19.10
2017-07-29T05:54:41.212Z,19.00
2017-07-29T05:57:08.791Z,19.00
2017-07-29T05:59:36.329Z,19.10
2017-07-29T06:02:03.874Z,19.10
2017-07-29T06:04:34.958Z,19.10
2017-07-29T06:07:02.506Z,19.10
2017-07-29T06:09:30.093Z,19.10
2017-07-29T06:11:57.627Z,19.10
2017-07-29T06:14:25.178Z,19.20
2017-07-29T06:16:52.753Z,19.20
2017-07-29T06:19:20.293Z,19.20
2017-07-29T06:21:48.656Z,19.30
2017-07-29T06:24:16.243Z,19.30
2017-07-29T06:26:43.782Z,19.40
2017-07-29T06:29:11.374Z,19.60
2017-07-29T06:31:38.938Z,20.20
2017-07-29T06:34:06.480Z,20.80
2017-07-29T06:36:36.226Z,21.40
2017-07-29T06:39:03.865Z,22.00
2017-07-29T06:41:31.442Z,22.60
2017-07-29T06:43:59.769Z,22.90
2017-07-29T06:46:27.355Z,22.80
2017-07-29T06:48:54.960Z,23.10
2017-07-29T06:51:22.507Z,22.60
2017-07-29T06:53:50.093Z,22.40
2017-07-29T06:56:17.658Z,22.40
2017-07-29T06:58:45.209Z,22.30
2017-07-29T07:01:12.775Z,22.20
2017-07-29T07:03:40.359Z,21.90
2017-07-29T07:06:07.939Z,21.70
2017-07-29T07:08:35.539Z,21.50
2017-07-29T07:11:03.846Z,21.70
2017-07-29T07:13:31.414Z,21.60
2017-07-29T07:15:58.958Z,21.70
2017-07-29T07:18:26.534Z,21.80
2017-07-29T07:20:54.075Z,21.80
2017-07-29T07:23:21.610Z,21.70
2017-07-29T07:25:49.937Z,21.80
2017-07-29T07:28:18.225Z,21.80
2017-07-29T07:30:45.811Z,21.90
2017-07-29T07:33:13.349Z,21.90
2017-07-29T07:35:40.914Z,21.80
2017-07-29T07:38:08.547Z,21.80
2017-07-29T07:40:36.087Z,21.50
2017-07-29T07:43:03.633Z,21.60
2017-07-29T07:45:31.205Z,21.80
2017-07-29T07:47:58.741Z,21.80
2017-07-29T07:50:26.319Z,21.80
2017-07-29T07:52:53.850Z,21.80
2017-07-29T07:55:21.561Z,21.80
2017-07-29T07:57:49.135Z,21.80
2017-07-29T08:00:16.692Z,21.70
2017-07-29T08:02:44.262Z,21.80
2017-07-29T08:05:11.802Z,21.90
2017-07-29T08:07:39.340Z,21.90
2017-07-29T08:10:06.905Z,21.90
2017-07-29T08:12:34.432Z,21.90
2017-07-29T08:15:02.019Z,22.00
2017-07-29T08:17:29.553Z,22.20
2017-07-29T08:19:57.096Z,22.40
2017-07-29T08:22:25.439Z,22.60
2017-07-29T08:24:53.113Z,22.60
2017-07-29T08:27:20.678Z,22.80
2017-07-29T08:29:48.215Z,22.80
2017-07-29T08:32:15.814Z,22.70
2017-07-29T08:34:44.171Z,22.90
2017-07-29T08:37:11.710Z,22.90
2017-07-29T08:39:39.603Z,23.10
2017-07-29T08:42:07.937Z,23.30
2017-07-29T08:44:35.471Z,23.30
2017-07-29T08:47:03.714Z,23.20
2017-07-29T08:49:31.289Z,23.20
2017-07-29T08:51:58.830Z,23.10
2017-07-29T08:54:26.367Z,23.10
2017-07-29T08:56:53.947Z,23.20
2017-07-29T08:59:22.285Z,23.20
2017-07-29T09:01:49.817Z,23.20
2017-07-29T09:04:17.398Z,23.20
2017-07-29T09:06:44.936Z,23.10
2017-07-29T09:09:12.475Z,23.10
2017-07-29T09:11:40.387Z,23.10
2017-07-29T09:14:07.923Z,23.00
2017-07-29T09:16:36.426Z,22.80
2017-07-29T09:19:04.718Z,22.80
2017-07-29T09:21:32.979Z,22.80
2017-07-29T09:24:01.902Z,22.80
2017-07-29T09:26:30.188Z,22.80
2017-07-29T09:28:57.742Z,23.00
2017-07-29T09:31:26.087Z,23.30
2017-07-29T09:33:53.637Z,23.30
2017-07-29T09:36:21.218Z,23.50
2017-07-29T09:38:48.952Z,23.60
2017-07-29T09:41:16.554Z,23.70
2017-07-29T09:43:44.099Z,23.80
2017-07-29T09:46:12.455Z,23.70
2017-07-29T09:48:40.015Z,23.70
2017-07-29T09:51:07.554Z,23.80
2017-07-29T09:53:35.138Z,23.70
2017-07-29T09:56:02.681Z,23.60
2017-07-29T09:58:30.236Z,23.60
2017-07-29T10:00:57.802Z,23.60
2017-07-29T10:03:25.338Z,23.60
2017-07-29T10:05:52.910Z,23.70
2017-07-29T10:08:20.453Z,24.00
2017-07-29T10:10:48.053Z,23.90
2017-07-29T10:13:15.617Z,23.90
2017-07-29T10:15:43.190Z,24.00
2017-07-29T10:18:10.735Z,24.20
2017-07-29T10:20:38.315Z,24.30
2017-07-29T10:23:06.622Z,24.50
2017-07-29T10:25:34.191Z,24.50
2017-07-29T10:28:01.730Z,24.50
2017-07-29T10:30:29.318Z,24.50
2017-07-29T10:32:56.855Z,24.50
2017-07-29T10:35:24.394Z,24.50
2017-07-29T10:37:52.752Z,24.50
2017-07-29T10:40:20.285Z,24.50
2017-07-29T10:42:47.825Z,24.60
2017-07-29T10:45:15.394Z,24.50
2017-07-29T10:47:42.934Z,24.50
2017-07-29T10:50:10.514Z,24.50
2017-07-29T10:52:38.055Z,24.50
2017-07-29T10:55:05.598Z,24.50
2017-07-29T10:57:33.186Z,24.30
2017-07-29T11:00:00.721Z,24.30
2017-07-29T11:02:28.265Z,24.40
2017-07-29T11:04:57.190Z,24.50
2017-07-29T11:07:24.758Z,24.50
2017-07-29T11:09:52.330Z,24.50
2017-07-29T11:12:19.863Z,24.40
2017-07-29T11:14:47.438Z,24.20
2017-07-29T11:17:14.977Z,24.10
2017-07-29T11:19:42.515Z,24.00
2017-07-29T11:22:10.085Z,23.90
2017-07-29T11:24:37.667Z,23.90
2017-07-29T11:27:05.230Z,23.90
2017-07-29T11:29:32.782Z,23.90
2017-07-29T11:32:00.362Z,23.90
2017-07-29T11:34:27.903Z,24.10
2017-07-29T11:36:55.434Z,24.20
2017-07-29T11:39:23.023Z,24.40
2017-07-29T11:41:50.590Z,24.30
2017-07-29T11:44:18.142Z,24.40
2017-07-29T11:46:46.569Z,24.60
2017-07-29T11:49:14.133Z,24.50
2017-07-29T11:51:41.713Z,24.70
2017-07-29T11:54:09.246Z,24.80
2017-07-29T11:56:36.807Z,24.70
2017-07-29T11:59:04.345Z,24.60
2017-07-29T12:01:35.123Z,24.50
2017-07-29T12:04:03.431Z,24.50
2017-07-29T12:06:30.973Z,24.30
2017-07-29T12:08:58.543Z,24.20
2017-07-29T12:11:26.088Z,24.20
2017-07-29T12:13:53.654Z,24.10
2017-07-29T12:16:21.191Z,24.00
2017-07-29T12:18:48.771Z,24.00
2017-07-29T12:21:16.309Z,23.90
2017-07-29T12:23:44.373Z,23.90
2017-07-29T12:26:11.938Z,24.00
2017-07-29T12:28:39.481Z,24.00
2017-07-29T12:31:07.292Z,24.10
2017-07-29T12:33:34.838Z,24.20
2017-07-29T12:36:02.375Z,24.30
2017-07-29T12:38:29.965Z,24.50
2017-07-29T12:40:57.506Z,24.50
2017-07-29T12:43:25.044Z,24.60
2017-07-29T12:45:52.614Z,24.70
2017-07-29T12:48:20.159Z,24.80
2017-07-29T12:50:47.733Z,24.70
2017-07-29T12:53:15.272Z,24.60
2017-07-29T12:55:42.855Z,24.50
2017-07-29T12:58:10.394Z,24.40
2017-07-29T13:00:37.939Z,24.10
2017-07-29T13:03:05.511Z,24.20
2017-07-29T13:05:33.058Z,24.40
2017-07-29T13:08:00.648Z,24.10
2017-07-29T13:10:28.191Z,24.00
2017-07-29T13:12:55.734Z,23.90
2017-07-29T13:15:23.304Z,24.00
2017-07-29T13:17:50.885Z,24.20
2017-07-29T13:20:18.435Z,24.50
2017-07-29T13:22:46.010Z,24.80
2017-07-29T13:25:13.546Z,25.00
2017-07-29T13:27:41.082Z,24.90
2017-07-29T13:30:08.671Z,24.90
2017-07-29T13:32:36.254Z,24.90
2017-07-29T13:35:03.833Z,24.80
2017-07-29T13:37:32.165Z,24.80
2017-07-29T13:39:59.706Z,24.70
2017-07-29T13:42:27.419Z,24.70
2017-07-29T13:44:55.049Z,24.60
2017-07-29T13:47:22.587Z,24.90
2017-07-29T13:49:50.122Z,25.10
2017-07-29T13:52:18.475Z,25.30
2017-07-29T13:54:46.014Z,25.30
2017-07-29T13:57:13.549Z,25.40
2017-07-29T13:59:41.133Z,25.10
2017-07-29T14:02:09.588Z,25.20
2017-07-29T14:04:37.133Z,25.20
2017-07-29T14:07:04.698Z,25.20
2017-07-29T14:09:32.239Z,25.30
2017-07-29T14:11:59.809Z,25.40
2017-07-29T14:14:27.391Z,25.40
2017-07-29T14:16:54.926Z,25.40
2017-07-29T14:19:22.506Z,25.40
2017-07-29T14:21:50.048Z,25.50
2017-07-29T14:24:17.632Z,25.50
2017-07-29T14:26:45.171Z,25.60
2017-07-29T14:29:12.753Z,25.70
2017-07-29T14:31:40.292Z,25.80
2017-07-29T14:34:07.856Z,25.90
2017-07-29T14:36:35.421Z,26.00
2017-07-29T14:39:02.958Z,26.00
2017-07-29T14:41:30.556Z,25.90
2017-07-29T14:43:58.099Z,25.90
2017-07-29T14:46:25.638Z,26.00
2017-07-29T14:48:53.209Z,26.20
2017-07-29T14:51:20.763Z,26.20
2017-07-29T14:53:48.326Z,26.50
2017-07-29T14:56:15.865Z,26.70
2017-07-29T14:58:43.402Z,27.10
2017-07-29T15:01:11.738Z,27.10
2017-07-29T15:03:39.274Z,27.10
2017-07-29T15:06:06.858Z,27.10
2017-07-29T15:08:34.399Z,27.20
2017-07-29T15:11:01.965Z,27.20
2017-07-29T15:13:29.530Z,27.30
2017-07-29T15:15:57.072Z,27.30
2017-07-29T15:18:24.646Z,27.20
2017-07-29T15:20:52.216Z,27.30
2017-07-29T15:23:19.794Z,27.40
2017-07-29T15:25:47.332Z,27.40
2017-07-29T15:28:14.878Z,27.20
2017-07-29T15:30:42.446Z,27.00
2017-07-29T15:33:09.989Z,26.80
2017-07-29T15:35:37.566Z,26.90
2017-07-29T15:38:05.109Z,26.70
2017-07-29T15:40:32.654Z,26.80
2017-07-29T15:43:00.821Z,27.00
2017-07-29T15:45:28.359Z,26.70
2017-07-29T15:47:55.940Z,26.80
2017-07-29T15:50:23.476Z,26.90
2017-07-29T15:52:51.031Z,26.90
2017-07-29T15:55:18.603Z,27.00
2017-07-29T15:57:46.137Z,27.10
2017-07-29T16:00:14.488Z,27.10
2017-07-29T16:02:42.039Z,27.10
2017-07-29T16:05:09.613Z,27.10
2017-07-29T16:07:37.181Z,27.20
2017-07-29T16:10:05.493Z,26.90
2017-07-29T16:12:33.061Z,26.80
2017-07-29T16:15:00.629Z,26.90
2017-07-29T16:17:28.170Z,26.90
2017-07-29T16:19:55.737Z,27.00
2017-07-29T16:22:23.274Z,26.90
2017-07-29T16:24:51.599Z,26.70
2017-07-29T16:27:20.119Z,26.50
2017-07-29T16:29:47.722Z,26.40
2017-07-29T16:32:15.273Z,26.40
2017-07-29T16:34:42.855Z,26.40
2017-07-29T16:37:10.392Z,26.50
2017-07-29T16:39:37.944Z,26.50
2017-07-29T16:42:05.524Z,26.30
2017-07-29T16:44:33.070Z,26.10
2017-07-29T16:47:00.645Z,26.00
2017-07-29T16:49:28.178Z,26.00
2017-07-29T16:51:55.740Z,26.20
2017-07-29T16:54:23.278Z,26.30
2017-07-29T16:56:50.851Z,26.40
2017-07-29T16:59:18.392Z,26.40
2017-07-29T17:01:45.975Z,26.40
2017-07-29T17:04:13.547Z,26.50
2017-07-29T17:06:41.116Z,26.50
2017-07-29T17:09:08.698Z,26.40
2017-07-29T17:11:36.233Z,26.30
2017-07-29T17:14:03.776Z,26.40
2017-07-29T17:16:31.341Z,26.40
2017-07-29T17:18:59.220Z,26.40
2017-07-29T17:21:26.796Z,26.50
2017-07-29T17:23:54.369Z,26.40
2017-07-29T17:26:22.673Z,26.20
2017-07-29T17:28:50.241Z,26.20
2017-07-29T17:31:17.782Z,26.20
2017-07-29T17:33:46.212Z,26.20
2017-07-29T17:36:13.781Z,26.20
2017-07-29T17:38:42.151Z,26.00
2017-07-29T17:41:10.877Z,26.10
2017-07-29T17:43:39.213Z,26.20
2017-07-29T17:46:07.659Z,26.20
2017-07-29T17:48:35.263Z,26.40
2017-07-29T17:51:03.658Z,26.50
2017-07-29T17:53:32.817Z,26.40
2017-07-29T17:56:00.358Z,26.40
2017-07-29T17:58:27.983Z,26.40
2017-07-29T18:00:56.298Z,26.20
2017-07-29T18:03:23.894Z,26.20
2017-07-29T18:05:51.443Z,26.10
2017-07-29T18:08:18.990Z,26.00
2017-07-29T18:10:46.605Z,26.10
2017-07-29T18:13:14.149Z,26.00
2017-07-29T18:15:42.534Z,25.80
2017-07-29T18:18:10.920Z,25.70
2017-07-29T18:20:39.275Z,25.70
2017-07-29T18:23:07.629Z,25.60
2017-07-29T18:25:36.090Z,25.60
2017-07-29T18:28:03.666Z,25.60
2017-07-29T18:30:31.215Z,25.50
2017-07-29T18:32:58.815Z,25.40
2017-07-29T18:35:27.142Z,25.30
2017-07-29T18:37:54.747Z,25.30
2017-07-29T18:40:22.302Z,25.30
2017-07-29T18:42:49.880Z,25.30
2017-07-29T18:45:17.429Z,25.20
2017-07-29T18:47:46.091Z,25.20
2017-07-29T18:50:13.664Z,25.20
2017-07-29T18:52:41.473Z,25.30
2017-07-29T18:55:10.996Z,25.20
2017-07-29T18:57:38.619Z,25.20
2017-07-29T19:00:13.996Z,25.30
2017-07-29T19:02:41.544Z,25.30
2017-07-29T19:05:09.497Z,25.30
2017-07-29T19:07:37.906Z,25.20
2017-07-29T19:10:05.493Z,25.10
2017-07-29T19:12:33.867Z,25.00
2017-07-29T19:15:04.309Z,25.00
2017-07-29T19:17:31.858Z,25.00
2017-07-29T19:20:01.481Z,25.00
2017-07-29T19:22:29.069Z,24.90
2017-07-29T19:24:58.222Z,25.00
2017-07-29T19:27:25.771Z,25.00
2017-07-29T19:29:53.363Z,24.90
2017-07-29T19:32:20.912Z,24.80
2017-07-29T19:34:49.346Z,24.70
2017-07-29T19:37:16.913Z,24.70
2017-07-29T19:39:44.474Z,24.60
2017-07-29T19:42:12.264Z,24.60
2017-07-29T19:44:39.868Z,24.70
2017-07-29T19:47:08.227Z,24.70
2017-07-29T19:49:35.796Z,24.70
2017-07-29T19:52:03.368Z,24.70
2017-07-29T19:54:32.268Z,24.60
2017-07-29T19:56:59.875Z,24.60
2017-07-29T19:59:27.437Z,24.60
2017-07-29T20:01:55.061Z,24.50
2017-07-29T20:04:22.610Z,24.50
2017-07-29T20:06:50.968Z,24.40
2017-07-29T20:09:18.546Z,24.40
2017-07-29T20:11:46.904Z,24.40
2017-07-29T20:14:15.412Z,24.40
2017-07-29T20:16:43.755Z,24.40
2017-07-29T20:19:11.351Z,24.40
2017-07-29T20:21:39.703Z,24.30
2017-07-29T20:24:07.255Z,24.30
2017-07-29T20:26:34.804Z,24.30
2017-07-29T20:29:02.970Z,24.30
2017-07-29T20:31:30.533Z,24.40
2017-07-29T20:33:58.124Z,24.30
2017-07-29T20:36:25.688Z,24.30
2017-07-29T20:38:54.046Z,24.20
2017-07-29T20:41:21.609Z,24.20
2017-07-29T20:43:49.186Z,24.20
2017-07-29T20:46:16.754Z,24.30
2017-07-29T20:48:45.687Z,24.20
2017-07-29T20:51:13.361Z,24.20
2017-07-29T20:53:43.280Z,24.20
2017-07-29T20:56:11.997Z,24.10
2017-07-29T20:58:39.964Z,24.10
2017-07-29T21:01:07.514Z,24.20
2017-07-29T21:03:35.150Z,24.20
2017-07-29T21:06:02.744Z,24.20
2017-07-29T21:08:30.322Z,24.20
2017-07-29T21:10:58.654Z,24.10
2017-07-29T21:13:26.398Z,24.10
2017-07-29T21:15:53.946Z,24.10
2017-07-29T21:18:21.502Z,24.10
2017-07-29T21:20:49.082Z,24.00
2017-07-29T21:23:16.635Z,24.00
2017-07-29T21:25:44.223Z,24.00
2017-07-29T21:28:11.772Z,24.00
2017-07-29T21:30:40.191Z,23.90
2017-07-29T21:33:08.667Z,24.00
2017-07-29T21:35:36.231Z,23.90
2017-07-29T21:38:03.793Z,23.80
2017-07-29T21:40:31.386Z,23.90
2017-07-29T21:42:58.949Z,23.90
2017-07-29T21:45:27.046Z,23.80
2017-07-29T21:47:54.600Z,23.90
2017-07-29T21:50:22.192Z,23.90
2017-07-29T21:52:49.740Z,23.90
2017-07-29T21:55:17.303Z,23.90
2017-07-29T21:57:44.879Z,23.90
2017-07-29T22:00:12.473Z,23.90
2017-07-29T22:02:40.067Z,23.90
2017-07-29T22:05:07.630Z,23.80
2017-07-29T22:07:35.192Z,23.90
2017-07-29T22:10:02.769Z,23.80
2017-07-29T22:12:30.317Z,23.90
2017-07-29T22:14:57.900Z,23.80
2017-07-29T22:17:25.442Z,23.70
2017-07-29T22:19:53.021Z,23.80
2017-07-29T22:22:20.583Z,23.70
2017-07-29T22:24:48.177Z,23.70
2017-07-29T22:27:15.723Z,23.60
2017-07-29T22:29:44.060Z,23.60
2017-07-29T22:32:11.615Z,23.60
2017-07-29T22:34:39.201Z,23.70
2017-07-29T22:37:06.756Z,23.70
2017-07-29T22:39:34.348Z,23.70
2017-07-29T22:42:01.910Z,23.60
2017-07-29T22:44:29.475Z,23.50
2017-07-29T22:46:57.083Z,23.50
2017-07-29T22:49:24.629Z,23.50
2017-07-29T22:51:52.223Z,23.40
2017-07-29T22:54:19.785Z,23.40
2017-07-29T22:56:47.348Z,23.30
2017-07-29T22:59:14.946Z,23.20
2017-07-29T23:01:42.489Z,23.20
2017-07-29T23:04:10.082Z,23.20
2017-07-29T23:06:37.675Z,23.20
2017-07-29T23:09:05.236Z,23.20
2017-07-29T23:11:32.830Z,23.20
2017-07-29T23:14:00.386Z,23.10
2017-07-29T23:16:28.736Z,23.10
2017-07-29T23:18:56.284Z,23.10
2017-07-29T23:21:23.877Z,23.20
2017-07-29T23:23:52.199Z,23.10
2017-07-29T23:26:19.752Z,23.10
2017-07-29T23:28:47.330Z,23.10
2017-07-29T23:31:14.892Z,23.10
2017-07-29T23:33:42.471Z,23.10
2017-07-29T23:36:10.033Z,23.10
2017-07-29T23:38:37.596Z,23.10
2017-07-29T23:41:05.175Z,23.10
2017-07-29T23:43:33.501Z,23.10
2017-07-29T23:46:01.094Z,23.10
2017-07-29T23:48:28.642Z,23.10
2017-07-29T23:50:56.198Z,23.00
2017-07-29T23:53:23.781Z,23.00
2017-07-29T23:55:51.331Z,23.10
2017-07-29T23:58:18.923Z,23.20
